Time;durP1;ratioP1;P1;durP2;ratioP2;P2;SDS_P1;SDS_P2;PMS_P1;PMS_P2;Temp;Humidity;BMP_temperature;BMP_pressure;BME280_temperature;BME280_humidity;BME280_pressure;Samples;Min_cycle;Max_cycle;Signal;HPM_P1;HPM_P2
2024/01/06 00:01:32;;;;;;;0.13;0.13;;;;;;;;;;4959278;28;20054;-88
2024/01/06 00:03:58;;;;;;;0.10;0.10;;;;;;;;;;4942888;28;20038;-87
2024/01/06 00:06:24;;;;;;;0.10;0.10;;;;;;;;;;4940475;28;20062;-88
2024/01/06 00:08:53;;;;;;;0.20;0.20;;;;;;;;;;4941649;28;20039;-88
2024/01/06 00:11:21;;;;;;;0.20;0.20;;;;;;;;;;4967459;28;20038;-87
2024/01/06 00:13:47;;;;;;;0.10;0.10;;;;;;;;;;4965490;28;20043;-88
2024/01/06 00:16:13;;;;;;;0.35;0.35;;;;;;;;;;4948931;28;20053;-88
2024/01/06 00:18:39;;;;;;;2.17;0.52;;;;;;;;;;4951153;28;20054;-88
2024/01/06 00:21:05;;;;;;;0.10;0.10;;;;;;;;;;4960859;28;20360;-87
2024/01/06 00:23:31;;;;;;;0.20;0.20;;;;;;;;;;4941927;28;20141;-87
2024/01/06 00:25:58;;;;;;;0.10;0.10;;;;;;;;;;4940428;28;20164;-87
2024/01/06 00:28:24;;;;;;;0.10;0.10;;;;;;;;;;4940237;28;20050;-87
2024/01/06 00:30:50;;;;;;;0.20;0.20;;;;;;;;;;4956186;28;20078;-87
2024/01/06 00:33:16;;;;;;;0.40;0.40;;;;;;;;;;4941159;28;20125;-87
2024/01/06 00:35:42;;;;;;;0.20;0.20;;;;;;;;;;4960259;28;20470;-87
2024/01/06 00:38:08;;;;;;;0.10;0.10;;;;;;;;;;4944023;28;20130;-87
2024/01/06 00:40:34;;;;;;;0.10;0.10;;;;;;;;;;4944454;28;20047;-88
2024/01/06 00:43:00;;;;;;;0.10;0.10;;;;;;;;;;4960192;28;20039;-87
2024/01/06 00:45:26;;;;;;;0.10;0.10;;;;;;;;;;4944003;28;20125;-88
2024/01/06 00:47:52;;;;;;;0.60;0.30;;;;;;;;;;4959873;28;20134;-88
2024/01/06 00:50:19;;;;;;;0.20;0.20;;;;;;;;;;4960577;28;20149;-87
2024/01/06 00:52:45;;;;;;;0.10;0.10;;;;;;;;;;4944055;28;20050;-88
2024/01/06 00:55:11;;;;;;;0.20;0.20;;;;;;;;;;4975729;28;20074;-88
2024/01/06 00:57:37;;;;;;;0.20;0.20;;;;;;;;;;4959917;28;20397;-88
2024/01/06 01:00:06;;;;;;;0.45;0.45;;;;;;;;;;4943833;28;20043;-88
2024/01/06 01:02:32;;;;;;;0.20;0.20;;;;;;;;;;4943803;28;20043;-87
2024/01/06 01:04:58;;;;;;;0.28;0.25;;;;;;;;;;4943343;28;20125;-88
2024/01/06 01:07:24;;;;;;;0.10;0.10;;;;;;;;;;4943700;28;20502;-88
2024/01/06 01:09:51;;;;;;;0.20;0.20;;;;;;;;;;4943548;28;20051;-88
2024/01/06 01:12:17;;;;;;;0.25;0.25;;;;;;;;;;4959688;28;20498;-88
2024/01/06 01:14:43;;;;;;;0.10;0.10;;;;;;;;;;4959464;28;20049;-88
2024/01/06 01:17:09;;;;;;;0.20;0.20;;;;;;;;;;4959799;28;20043;-89
2024/01/06 01:19:35;;;;;;;0.10;0.10;;;;;;;;;;4943232;28;20035;-88
2024/01/06 01:22:01;;;;;;;0.30;0.30;;;;;;;;;;4943347;28;20038;-87
2024/01/06 01:24:27;;;;;;;0.17;0.17;;;;;;;;;;4943323;28;20043;-87
2024/01/06 01:26:53;;;;;;;0.40;0.40;;;;;;;;;;4959262;28;20410;-88
2024/01/06 01:29:20;;;;;;;0.10;0.10;;;;;;;;;;4959151;28;20051;-87
2024/01/06 01:31:47;;;;;;;1.10;1.10;;;;;;;;;;4943268;28;20039;-88
2024/01/06 01:34:13;;;;;;;0.52;0.52;;;;;;;;;;4943053;28;20046;-88
2024/01/06 01:36:39;;;;;;;0.20;0.20;;;;;;;;;;4959216;28;20126;-88
2024/01/06 01:39:05;;;;;;;0.35;0.35;;;;;;;;;;4959186;28;20125;-88
2024/01/06 01:41:31;;;;;;;0.45;0.45;;;;;;;;;;4943057;28;20125;-88
2024/01/06 01:44:00;;;;;;;0.30;0.20;;;;;;;;;;4942633;28;20149;-88
2024/01/06 01:46:27;;;;;;;1.33;0.40;;;;;;;;;;4943501;28;20043;-88
2024/01/06 01:48:54;;;;;;;0.63;0.63;;;;;;;;;;4974718;28;20085;-88
2024/01/06 01:51:21;;;;;;;0.10;0.10;;;;;;;;;;4942962;28;20050;-88
2024/01/06 01:53:47;;;;;;;0.52;0.30;;;;;;;;;;4942911;28;20126;-88
2024/01/06 01:56:13;;;;;;;0.10;0.10;;;;;;;;;;4942738;28;20046;-87
2024/01/06 01:58:40;;;;;;;0.32;0.32;;;;;;;;;;4958735;28;20198;-87
2024/01/06 02:01:06;;;;;;;1.75;1.65;;;;;;;;;;4942750;28;20043;-87
2024/01/06 02:03:33;;;;;;;0.10;0.10;;;;;;;;;;4942516;28;20039;-87
2024/01/06 02:05:59;;;;;;;0.22;0.20;;;;;;;;;;4958870;28;20038;-88
2024/01/06 02:08:25;;;;;;;0.10;0.10;;;;;;;;;;4942565;28;20050;-87
2024/01/06 02:10:51;;;;;;;0.10;0.10;;;;;;;;;;4942597;28;20101;-89
2024/01/06 02:13:17;;;;;;;0.20;0.20;;;;;;;;;;4942642;28;20046;-89
2024/01/06 02:15:43;;;;;;;0.20;0.20;;;;;;;;;;4942522;28;20042;-89
2024/01/06 02:18:10;;;;;;;0.40;0.40;;;;;;;;;;4958625;28;20054;-89
2024/01/06 02:20:36;;;;;;;0.70;0.38;;;;;;;;;;4942453;28;20051;-90
2024/01/06 02:23:02;;;;;;;0.20;0.20;;;;;;;;;;4942608;28;20098;-90
2024/01/06 02:25:29;;;;;;;0.20;0.20;;;;;;;;;;4942379;28;20039;-89
2024/01/06 02:27:55;;;;;;;0.10;0.10;;;;;;;;;;4942646;28;20046;-89
2024/01/06 02:30:21;;;;;;;0.20;0.20;;;;;;;;;;4942513;28;20066;-89
2024/01/06 02:32:47;;;;;;;0.30;0.30;;;;;;;;;;4942574;28;20129;-89
2024/01/06 02:35:13;;;;;;;0.88;0.20;;;;;;;;;;4958313;28;20078;-89
2024/01/06 02:37:39;;;;;;;0.10;0.10;;;;;;;;;;4942448;28;20129;-90
2024/01/06 02:40:05;;;;;;;0.57;0.57;;;;;;;;;;4942305;28;20534;-88
2024/01/06 02:42:31;;;;;;;0.30;0.30;;;;;;;;;;4958537;28;20046;-89
2024/01/06 02:44:57;;;;;;;0.10;0.10;;;;;;;;;;4957890;28;20042;-89
2024/01/06 02:47:23;;;;;;;0.28;0.28;;;;;;;;;;4942179;28;20054;-89
2024/01/06 02:49:49;;;;;;;0.15;0.15;;;;;;;;;;4942125;28;20413;-88
2024/01/06 02:52:15;;;;;;;0.10;0.10;;;;;;;;;;4958388;28;20043;-88
2024/01/06 02:54:41;;;;;;;0.20;0.20;;;;;;;;;;4941983;28;20554;-89
2024/01/06 02:57:08;;;;;;;0.10;0.10;;;;;;;;;;4940961;28;20133;-89
2024/01/06 02:59:34;;;;;;;0.38;0.38;;;;;;;;;;4941589;28;20097;-89
2024/01/06 03:02:00;;;;;;;0.15;0.15;;;;;;;;;;4942254;28;20042;-90
2024/01/06 03:04:26;;;;;;;0.10;0.10;;;;;;;;;;4957985;28;20138;-89
2024/01/06 03:06:53;;;;;;;0.20;0.20;;;;;;;;;;4957780;28;20226;-89
2024/01/06 03:09:19;;;;;;;0.10;0.10;;;;;;;;;;4941754;28;20130;-88
2024/01/06 03:11:45;;;;;;;0.15;0.15;;;;;;;;;;4941563;28;20078;-87
2024/01/06 03:14:11;;;;;;;0.13;0.13;;;;;;;;;;4941605;28;20035;-88
2024/01/06 03:16:37;;;;;;;0.20;0.20;;;;;;;;;;4941529;28;20166;-88
2024/01/06 03:19:03;;;;;;;0.10;0.10;;;;;;;;;;4941712;28;20563;-88
2024/01/06 03:21:29;;;;;;;0.10;0.10;;;;;;;;;;4957043;28;20066;-88
2024/01/06 03:23:55;;;;;;;0.40;0.40;;;;;;;;;;4941338;28;20086;-88
2024/01/06 03:26:21;;;;;;;0.38;0.38;;;;;;;;;;4941309;28;20122;-87
2024/01/06 03:28:49;;;;;;;0.28;0.20;;;;;;;;;;4940959;28;20126;-89
2024/01/06 03:31:15;;;;;;;0.20;0.20;;;;;;;;;;4941354;28;20043;-89
2024/01/06 03:33:42;;;;;;;0.30;0.30;;;;;;;;;;4941542;28;20471;-90
2024/01/06 03:36:09;;;;;;;0.20;0.20;;;;;;;;;;4941160;28;20123;-89
2024/01/06 03:38:35;;;;;;;0.20;0.20;;;;;;;;;;4957426;28;20050;-90
2024/01/06 03:41:02;;;;;;;0.10;0.10;;;;;;;;;;4925968;28;20042;-89
2024/01/06 03:43:28;;;;;;;0.10;0.10;;;;;;;;;;4941002;28;20467;-89
2024/01/06 03:45:56;;;;;;;0.55;0.55;;;;;;;;;;4956989;28;20222;-90
2024/01/06 03:48:22;;;;;;;0.10;0.10;;;;;;;;;;4941212;28;20068;-89
2024/01/06 03:50:48;;;;;;;0.28;0.28;;;;;;;;;;4941490;28;20489;-89
2024/01/06 03:53:14;;;;;;;0.63;0.20;;;;;;;;;;4957525;28;20046;-90
2024/01/06 03:55:40;;;;;;;0.10;0.10;;;;;;;;;;4957280;28;20042;-89
2024/01/06 03:58:06;;;;;;;0.98;0.50;;;;;;;;;;4956595;28;20464;-89
2024/01/06 04:00:32;;;;;;;0.15;0.15;;;;;;;;;;4940979;28;20487;-89
2024/01/06 04:02:58;;;;;;;0.20;0.20;;;;;;;;;;4940640;28;20030;-89
2024/01/06 04:05:24;;;;;;;0.10;0.10;;;;;;;;;;4956819;28;20043;-88
2024/01/06 04:07:50;;;;;;;0.10;0.10;;;;;;;;;;4956603;28;20038;-88
2024/01/06 04:10:16;;;;;;;0.17;0.17;;;;;;;;;;4956633;28;20038;-88
2024/01/06 04:12:42;;;;;;;0.10;0.10;;;;;;;;;;4940271;28;20511;-88
2024/01/06 04:15:08;;;;;;;0.50;0.50;;;;;;;;;;4940542;28;20046;-88
2024/01/06 04:17:34;;;;;;;0.10;0.10;;;;;;;;;;4956345;28;20054;-89
2024/01/06 04:20:00;;;;;;;0.10;0.10;;;;;;;;;;4940401;28;20115;-89
2024/01/06 04:22:26;;;;;;;0.10;0.10;;;;;;;;;;4940795;28;20057;-88
2024/01/06 04:24:52;;;;;;;0.10;0.10;;;;;;;;;;4940391;28;20038;-88
2024/01/06 04:27:18;;;;;;;0.10;0.10;;;;;;;;;;4956438;28;20153;-89
2024/01/06 04:29:44;;;;;;;0.73;0.73;;;;;;;;;;4956528;28;20554;-88
2024/01/06 04:32:10;;;;;;;0.15;0.15;;;;;;;;;;4956364;28;20084;-88
2024/01/06 04:34:36;;;;;;;0.35;0.35;;;;;;;;;;4940584;28;20138;-87
2024/01/06 04:37:03;;;;;;;0.10;0.10;;;;;;;;;;4956187;28;20126;-89
2024/01/06 04:39:28;;;;;;;0.20;0.20;;;;;;;;;;4940556;28;20046;-89
2024/01/06 04:41:55;;;;;;;0.55;0.45;;;;;;;;;;4940662;28;20397;-88
2024/01/06 04:44:22;;;;;;;0.22;0.22;;;;;;;;;;4940309;28;20042;-88
2024/01/06 04:46:48;;;;;;;0.10;0.10;;;;;;;;;;4940415;28;20078;-88
2024/01/06 04:49:14;;;;;;;0.20;0.20;;;;;;;;;;4940160;28;20082;-88
2024/01/06 04:51:40;;;;;;;0.35;0.35;;;;;;;;;;4940222;28;20129;-88
2024/01/06 04:54:06;;;;;;;0.15;0.15;;;;;;;;;;4971921;28;20515;-88
2024/01/06 04:56:32;;;;;;;0.75;0.32;;;;;;;;;;4940012;28;20081;-88
2024/01/06 04:58:57;;;;;;;0.45;0.40;;;;;;;;;;4956007;28;20047;-88
2024/01/06 05:01:24;;;;;;;0.25;0.25;;;;;;;;;;4940427;28;20555;-88
2024/01/06 05:03:50;;;;;;;0.10;0.10;;;;;;;;;;4940434;28;20038;-90
2024/01/06 05:06:16;;;;;;;0.10;0.10;;;;;;;;;;4972427;28;20490;-89
2024/01/06 05:08:44;;;;;;;0.50;0.50;;;;;;;;;;4940256;28;20034;-89
2024/01/06 05:11:10;;;;;;;0.50;0.50;;;;;;;;;;4940694;28;20113;-89
2024/01/06 05:13:36;;;;;;;0.20;0.20;;;;;;;;;;4940498;28;20392;-89
2024/01/06 05:16:03;;;;;;;0.15;0.15;;;;;;;;;;4940148;28;20046;-88
2024/01/06 05:18:29;;;;;;;0.30;0.30;;;;;;;;;;4956233;28;20154;-89
2024/01/06 05:20:55;;;;;;;0.10;0.10;;;;;;;;;;4958972;28;20494;-89
2024/01/06 05:23:21;;;;;;;0.10;0.10;;;;;;;;;;4943739;28;20096;-89
2024/01/06 05:25:47;;;;;;;0.10;0.10;;;;;;;;;;4943842;28;20046;-89
2024/01/06 05:28:13;;;;;;;1.35;0.40;;;;;;;;;;4943869;28;20050;-90
2024/01/06 05:30:39;;;;;;;1.15;0.20;;;;;;;;;;4943453;28;20043;-89
2024/01/06 05:33:05;;;;;;;0.10;0.10;;;;;;;;;;4959553;28;20049;-89
2024/01/06 05:35:31;;;;;;;0.10;0.10;;;;;;;;;;4943649;28;20486;-89
2024/01/06 05:37:57;;;;;;;0.30;0.30;;;;;;;;;;4943447;28;20406;-90
2024/01/06 05:40:23;;;;;;;0.10;0.10;;;;;;;;;;4943437;28;20043;-90
2024/01/06 05:42:51;;;;;;;0.20;0.20;;;;;;;;;;4943181;28;20035;-89
2024/01/06 05:45:17;;;;;;;0.20;0.20;;;;;;;;;;4943204;28;20505;-88
2024/01/06 05:47:43;;;;;;;0.17;0.17;;;;;;;;;;4958842;28;20047;-88
2024/01/06 05:50:11;;;;;;;0.20;0.20;;;;;;;;;;4943431;28;20062;-88
2024/01/06 05:52:37;;;;;;;0.15;0.15;;;;;;;;;;4943035;28;20054;-88
2024/01/06 05:55:04;;;;;;;0.20;0.20;;;;;;;;;;4958852;28;20070;-88
2024/01/06 05:57:30;;;;;;;0.20;0.20;;;;;;;;;;4942712;28;20046;-88
2024/01/06 05:59:56;;;;;;;0.25;0.25;;;;;;;;;;4942873;28;20043;-88
2024/01/06 06:02:22;;;;;;;0.10;0.10;;;;;;;;;;4958910;28;20451;-88
2024/01/06 06:04:48;;;;;;;0.13;0.13;;;;;;;;;;4942808;28;20085;-89
2024/01/06 06:07:14;;;;;;;0.10;0.10;;;;;;;;;;4942593;28;20491;-88
2024/01/06 06:09:40;;;;;;;0.20;0.20;;;;;;;;;;4958673;28;20130;-89
2024/01/06 06:12:06;;;;;;;0.10;0.10;;;;;;;;;;4942988;28;20085;-89
2024/01/06 06:14:32;;;;;;;0.15;0.15;;;;;;;;;;4942599;28;20187;-88
2024/01/06 06:16:58;;;;;;;0.10;0.10;;;;;;;;;;4942589;28;20261;-89
2024/01/06 06:19:24;;;;;;;0.20;0.20;;;;;;;;;;4942729;28;20268;-89
2024/01/06 06:21:50;;;;;;;0.10;0.10;;;;;;;;;;4942190;28;20226;-88
2024/01/06 06:24:16;;;;;;;0.50;0.40;;;;;;;;;;4942457;28;20075;-88
2024/01/06 06:26:43;;;;;;;0.10;0.10;;;;;;;;;;4958240;28;20051;-88
2024/01/06 06:29:09;;;;;;;0.20;0.20;;;;;;;;;;4958483;28;20035;-88
2024/01/06 06:31:35;;;;;;;0.10;0.10;;;;;;;;;;4974213;28;20214;-88
2024/01/06 06:34:01;;;;;;;0.10;0.10;;;;;;;;;;4958370;28;20039;-89
2024/01/06 06:36:29;;;;;;;0.10;0.10;;;;;;;;;;4958328;28;20112;-88
2024/01/06 06:38:57;;;;;;;0.10;0.10;;;;;;;;;;4942770;28;20389;-88
2024/01/06 06:41:23;;;;;;;0.20;0.20;;;;;;;;;;4942606;28;20362;-87
2024/01/06 06:43:50;;;;;;;0.90;0.50;;;;;;;;;;4941898;28;20514;-87
2024/01/06 06:46:16;;;;;;;0.10;0.10;;;;;;;;;;4958299;28;20050;-88
2024/01/06 06:48:42;;;;;;;0.10;0.10;;;;;;;;;;4941900;28;20046;-88
2024/01/06 06:51:08;;;;;;;0.22;0.22;;;;;;;;;;4942199;28;20042;-89
2024/01/06 06:53:34;;;;;;;0.10;0.10;;;;;;;;;;4942081;28;20049;-88
2024/01/06 06:56:00;;;;;;;0.10;0.10;;;;;;;;;;4958134;28;20097;-88
2024/01/06 06:58:26;;;;;;;0.20;0.20;;;;;;;;;;4958183;28;20078;-88
2024/01/06 07:00:54;;;;;;;0.32;0.30;;;;;;;;;;4942161;28;20079;-89
2024/01/06 07:03:20;;;;;;;0.10;0.10;;;;;;;;;;4942267;28;20455;-89
2024/01/06 07:05:46;;;;;;;0.43;0.43;;;;;;;;;;4958201;28;20038;-89
2024/01/06 07:08:14;;;;;;;0.20;0.20;;;;;;;;;;4941654;28;20039;-89
2024/01/06 07:10:41;;;;;;;0.10;0.10;;;;;;;;;;4941789;28;20049;-89
2024/01/06 07:13:07;;;;;;;0.10;0.10;;;;;;;;;;4941519;28;20039;-88
2024/01/06 07:15:33;;;;;;;0.47;0.47;;;;;;;;;;4941285;28;20076;-88
2024/01/06 07:17:59;;;;;;;0.10;0.10;;;;;;;;;;4941153;28;20042;-86
2024/01/06 07:20:25;;;;;;;0.10;0.10;;;;;;;;;;4940866;28;20561;-88
2024/01/06 07:22:51;;;;;;;0.10;0.10;;;;;;;;;;4957223;28;20050;-88
2024/01/06 07:25:17;;;;;;;0.10;0.10;;;;;;;;;;4941103;28;20042;-88
2024/01/06 07:27:43;;;;;;;0.10;0.10;;;;;;;;;;4941297;28;20117;-89
2024/01/06 07:30:09;;;;;;;0.10;0.10;;;;;;;;;;4957380;28;20431;-89
2024/01/06 07:32:35;;;;;;;0.10;0.10;;;;;;;;;;4941411;28;20129;-90
2024/01/06 07:35:02;;;;;;;0.40;0.40;;;;;;;;;;4941638;28;20078;-90
2024/01/06 07:37:28;;;;;;;0.10;0.10;;;;;;;;;;4941981;28;20039;-89
2024/01/06 07:39:54;;;;;;;0.13;0.13;;;;;;;;;;4941544;28;20066;-89
2024/01/06 07:42:20;;;;;;;0.22;0.22;;;;;;;;;;4941168;28;20434;-89
2024/01/06 07:44:46;;;;;;;0.10;0.10;;;;;;;;;;4941331;28;20111;-89
2024/01/06 07:47:12;;;;;;;0.10;0.10;;;;;;;;;;4957122;28;20054;-90
2024/01/06 07:49:38;;;;;;;0.10;0.10;;;;;;;;;;4941173;28;20062;-90
2024/01/06 07:52:04;;;;;;;0.10;0.10;;;;;;;;;;4941297;28;20055;-89
2024/01/06 07:54:31;;;;;;;0.10;0.10;;;;;;;;;;4941236;28;20053;-89
2024/01/06 07:56:57;;;;;;;0.10;0.10;;;;;;;;;;4941159;28;20406;-89
2024/01/06 07:59:23;;;;;;;0.30;0.30;;;;;;;;;;4940988;28;20172;-89
2024/01/06 08:01:51;;;;;;;0.10;0.10;;;;;;;;;;4956911;28;20042;-88
2024/01/06 08:04:17;;;;;;;0.15;0.15;;;;;;;;;;4940737;28;20105;-89
2024/01/06 08:06:43;;;;;;;0.10;0.10;;;;;;;;;;4940859;28;20042;-88
2024/01/06 08:09:12;;;;;;;0.10;0.10;;;;;;;;;;4973184;28;20069;-94
2024/01/06 08:11:39;;;;;;;0.10;0.10;;;;;;;;;;4942650;28;20042;-92
2024/01/06 08:14:08;;;;;;;0.10;0.10;;;;;;;;;;4957423;28;20070;-89
2024/01/06 08:16:34;;;;;;;0.10;0.10;;;;;;;;;;4940896;28;20058;-88
2024/01/06 08:19:00;;;;;;;0.20;0.20;;;;;;;;;;4957039;28;20046;-87
2024/01/06 08:21:26;;;;;;;0.20;0.20;;;;;;;;;;4940506;28;20197;-87
2024/01/06 08:23:54;;;;;;;0.10;0.10;;;;;;;;;;4956769;28;20399;-92
2024/01/06 08:26:21;;;;;;;0.20;0.20;;;;;;;;;;4940990;28;20449;-89
2024/01/06 08:28:47;;;;;;;0.20;0.20;;;;;;;;;;4941172;28;20136;-89
2024/01/06 08:31:13;;;;;;;0.20;0.20;;;;;;;;;;4940367;28;20058;-88
2024/01/06 08:33:38;;;;;;;0.10;0.10;;;;;;;;;;4940448;28;20043;-87
2024/01/06 08:36:05;;;;;;;0.10;0.10;;;;;;;;;;4940748;28;20387;-86
2024/01/06 08:38:31;;;;;;;0.20;0.20;;;;;;;;;;4940307;28;20380;-88
2024/01/06 08:40:57;;;;;;;1.38;0.40;;;;;;;;;;4939908;28;20046;-88
2024/01/06 08:43:23;;;;;;;0.10;0.10;;;;;;;;;;4940638;28;20043;-88
2024/01/06 08:45:50;;;;;;;0.10;0.10;;;;;;;;;;4940424;28;20475;-89
2024/01/06 08:48:18;;;;;;;0.25;0.25;;;;;;;;;;4940479;28;20039;-88
2024/01/06 08:50:45;;;;;;;0.25;0.25;;;;;;;;;;4940335;28;20055;-88
2024/01/06 08:53:11;;;;;;;0.10;0.10;;;;;;;;;;4956646;28;20051;-89
2024/01/06 08:55:37;;;;;;;0.10;0.10;;;;;;;;;;4943456;28;20039;-89
2024/01/06 08:58:03;;;;;;;0.20;0.20;;;;;;;;;;4960008;28;20418;-89
2024/01/06 09:00:30;;;;;;;0.10;0.10;;;;;;;;;;4944000;28;20038;-87
2024/01/06 09:02:56;;;;;;;0.10;0.10;;;;;;;;;;4959842;28;20046;-89
2024/01/06 09:05:23;;;;;;;0.38;0.38;;;;;;;;;;4959791;28;20121;-89
2024/01/06 09:07:50;;;;;;;0.10;0.10;;;;;;;;;;4943743;28;20402;-88
2024/01/06 09:10:19;;;;;;;0.10;0.10;;;;;;;;;;4943561;28;20490;-88
2024/01/06 09:12:45;;;;;;;0.10;0.10;;;;;;;;;;4943388;28;20461;-88
2024/01/06 09:15:11;;;;;;;0.10;0.10;;;;;;;;;;4943466;28;20510;-88
2024/01/06 09:17:37;;;;;;;0.10;0.10;;;;;;;;;;4943679;28;20459;-87
2024/01/06 09:20:03;;;;;;;0.20;0.20;;;;;;;;;;4943511;28;20402;-88
2024/01/06 09:22:29;;;;;;;0.30;0.30;;;;;;;;;;4943216;28;20054;-88
2024/01/06 09:24:57;;;;;;;0.30;0.30;;;;;;;;;;4943265;28;20066;-88
2024/01/06 09:27:23;;;;;;;0.93;0.93;;;;;;;;;;4943299;28;20054;-87
2024/01/06 09:29:50;;;;;;;0.10;0.10;;;;;;;;;;4958897;28;20046;-87
2024/01/06 09:32:16;;;;;;;1.85;0.77;;;;;;;;;;4959311;28;20242;-87
2024/01/06 09:34:43;;;;;;;0.30;0.30;;;;;;;;;;4943097;28;20099;-87
2024/01/06 09:37:09;;;;;;;0.10;0.10;;;;;;;;;;4958884;28;20051;-86
2024/01/06 09:39:35;;;;;;;0.10;0.10;;;;;;;;;;4943222;28;20093;-88
2024/01/06 09:42:01;;;;;;;0.10;0.10;;;;;;;;;;4943640;28;20474;-87
2024/01/06 09:44:27;;;;;;;0.73;0.73;;;;;;;;;;4959527;28;20502;-88
2024/01/06 09:46:53;;;;;;;0.20;0.20;;;;;;;;;;4959314;28;20035;-88
2024/01/06 09:49:23;;;;;;;0.30;0.30;;;;;;;;;;4959575;28;20470;-87
2024/01/06 09:51:52;;;;;;;0.20;0.20;;;;;;;;;;4975907;28;20046;-87
2024/01/06 09:54:18;;;;;;;0.17;0.17;;;;;;;;;;4943890;28;20042;-87
2024/01/06 09:56:44;;;;;;;0.95;0.95;;;;;;;;;;4959478;28;20034;-88
2024/01/06 09:59:10;;;;;;;0.52;0.20;;;;;;;;;;4944202;28;20401;-88
2024/01/06 10:01:36;;;;;;;0.20;0.20;;;;;;;;;;4944586;28;20039;-87
2024/01/06 10:04:03;;;;;;;0.75;0.22;;;;;;;;;;4961469;28;20130;-86
2024/01/06 10:06:29;;;;;;;0.10;0.10;;;;;;;;;;4950251;28;20063;-87
2024/01/06 10:08:55;;;;;;;0.20;0.20;;;;;;;;;;4964947;28;20100;-88
2024/01/06 10:11:22;;;;;;;0.32;0.20;;;;;;;;;;4961305;28;20043;-87
2024/01/06 10:13:51;;;;;;;0.10;0.10;;;;;;;;;;4957232;28;20054;-87
2024/01/06 10:16:17;;;;;;;0.77;0.77;;;;;;;;;;4963163;28;20058;-87
2024/01/06 10:18:44;;;;;;;0.20;0.20;;;;;;;;;;4978294;28;20307;-87
2024/01/06 10:21:10;;;;;;;0.10;0.10;;;;;;;;;;4976257;28;20051;-87
2024/01/06 10:23:36;;;;;;;0.20;0.20;;;;;;;;;;4964464;28;20042;-91
2024/01/06 10:26:05;;;;;;;0.20;0.20;;;;;;;;;;4944617;28;20039;-90
2024/01/06 10:28:32;;;;;;;2.92;0.75;;;;;;;;;;4942636;28;20102;-88
2024/01/06 10:30:58;;;;;;;0.30;0.30;;;;;;;;;;4974342;28;20061;-87
2024/01/06 10:33:25;;;;;;;0.10;0.10;;;;;;;;;;4942371;28;20046;-87
2024/01/06 10:35:51;;;;;;;0.10;0.10;;;;;;;;;;4958066;28;20506;-87
2024/01/06 10:38:17;;;;;;;0.40;0.40;;;;;;;;;;4957831;28;20505;-86
2024/01/06 10:40:59;;;;;;;0.45;0.45;;;;;;;;;;4957769;28;20035;-87
2024/01/06 10:43:26;;;;;;;0.20;0.20;;;;;;;;;;4957869;28;20553;-87
2024/01/06 10:45:52;;;;;;;0.20;0.20;;;;;;;;;;4942171;28;20038;-88
2024/01/06 10:48:22;;;;;;;0.20;0.20;;;;;;;;;;4957660;28;20041;-87
2024/01/06 10:50:48;;;;;;;0.10;0.10;;;;;;;;;;4957427;28;20473;-87
2024/01/06 10:53:14;;;;;;;0.17;0.15;;;;;;;;;;4941646;28;20078;-87
2024/01/06 10:55:40;;;;;;;0.20;0.20;;;;;;;;;;4941839;28;20048;-86
2024/01/06 10:58:06;;;;;;;0.10;0.10;;;;;;;;;;4957582;28;20078;-88
2024/01/06 11:00:32;;;;;;;0.22;0.22;;;;;;;;;;4957566;28;20455;-88
2024/01/06 11:02:59;;;;;;;0.47;0.47;;;;;;;;;;4941570;28;20078;-89
2024/01/06 11:05:25;;;;;;;0.35;0.35;;;;;;;;;;4958133;28;20043;-89
2024/01/06 11:07:54;;;;;;;0.13;0.13;;;;;;;;;;4941854;28;20384;-89
2024/01/06 11:10:20;;;;;;;0.90;0.35;;;;;;;;;;4941808;28;20078;-89
2024/01/06 11:12:46;;;;;;;0.10;0.10;;;;;;;;;;4957507;28;20126;-89
2024/01/06 11:15:32;;;;;;;0.50;0.50;;;;;;;;;;4952100;29;20067;-88
2024/01/06 11:17:58;;;;;;;0.45;0.40;;;;;;;;;;4937509;29;20043;-88
2024/01/06 11:20:24;;;;;;;0.28;0.28;;;;;;;;;;4938107;29;20395;-89
2024/01/06 11:22:51;;;;;;;0.15;0.15;;;;;;;;;;4941324;29;20043;-88
2024/01/06 11:25:18;;;;;;;0.20;0.20;;;;;;;;;;4986596;28;20043;-89
2024/01/06 11:27:45;;;;;;;0.22;0.22;;;;;;;;;;4938581;29;20051;-89
2024/01/06 11:30:19;;;;;;;0.20;0.20;;;;;;;;;;4939226;29;20070;-89
2024/01/06 11:32:46;;;;;;;0.30;0.30;;;;;;;;;;4938452;29;20418;-87
2024/01/06 11:35:13;;;;;;;1.30;1.23;;;;;;;;;;4937906;29;20054;-89
2024/01/06 11:37:39;;;;;;;0.85;0.85;;;;;;;;;;4937919;29;20050;-89
2024/01/06 11:40:10;;;;;;;0.20;0.20;;;;;;;;;;4937705;29;20130;-89
2024/01/06 11:42:36;;;;;;;0.10;0.10;;;;;;;;;;4937693;29;20049;-89
2024/01/06 11:45:02;;;;;;;0.20;0.20;;;;;;;;;;4986959;28;20057;-89
2024/01/06 11:47:30;;;;;;;0.13;0.13;;;;;;;;;;4986484;28;20074;-89
2024/01/06 11:49:56;;;;;;;0.30;0.30;;;;;;;;;;4985727;28;20051;-88
2024/01/06 11:52:22;;;;;;;0.10;0.10;;;;;;;;;;4937930;29;20138;-89
2024/01/06 11:54:49;;;;;;;0.10;0.10;;;;;;;;;;4985751;28;20411;-88
2024/01/06 11:57:15;;;;;;;0.10;0.10;;;;;;;;;;4937672;29;20130;-90
2024/01/06 11:59:41;;;;;;;0.47;0.47;;;;;;;;;;4937742;29;20066;-90
2024/01/06 12:02:11;;;;;;;0.20;0.20;;;;;;;;;;4937328;29;20043;-88
2024/01/06 12:04:40;;;;;;;0.65;0.45;;;;;;;;;;4937393;29;20043;-90
2024/01/06 12:07:07;;;;;;;0.10;0.10;;;;;;;;;;4937094;29;20043;-88
2024/01/06 12:09:33;;;;;;;0.10;0.10;;;;;;;;;;4936911;29;20047;-88
2024/01/06 12:12:06;;;;;;;0.10;0.10;;;;;;;;;;4936962;29;20047;-87
2024/01/06 12:14:32;;;;;;;0.28;0.28;;;;;;;;;;4985186;28;20051;-88
2024/01/06 12:17:02;;;;;;;0.10;0.10;;;;;;;;;;4985373;28;20397;-88
2024/01/06 12:19:30;;;;;;;0.30;0.30;;;;;;;;;;4937454;29;20040;-94
2024/01/06 12:21:56;;;;;;;1.95;0.20;;;;;;;;;;4938136;29;20047;-93
2024/01/06 12:24:22;;;;;;;0.10;0.10;;;;;;;;;;4937920;29;20116;-88
2024/01/06 12:26:48;;;;;;;0.20;0.20;;;;;;;;;;4984987;28;20043;-87
2024/01/06 12:29:14;;;;;;;0.30;0.30;;;;;;;;;;4936898;29;20045;-88
2024/01/06 12:31:41;;;;;;;0.32;0.32;;;;;;;;;;4985036;28;20056;-89
2024/01/06 12:34:07;;;;;;;0.20;0.20;;;;;;;;;;4985141;28;20043;-87
2024/01/06 12:36:40;;;;;;;0.10;0.10;;;;;;;;;;4936811;29;20050;-88
2024/01/06 12:39:09;;;;;;;0.20;0.20;;;;;;;;;;4936694;29;20043;-83
2024/01/06 12:41:36;;;;;;;0.10;0.10;;;;;;;;;;4968337;28;20049;-85
2024/01/06 12:44:02;;;;;;;0.40;0.20;;;;;;;;;;4984987;28;20041;-86
2024/01/06 12:46:28;;;;;;;0.20;0.20;;;;;;;;;;4984866;28;20039;-86
2024/01/06 12:48:54;;;;;;;0.10;0.10;;;;;;;;;;4936664;29;20051;-86
2024/01/06 12:51:20;;;;;;;0.20;0.20;;;;;;;;;;4985113;28;20590;-88
2024/01/06 12:53:46;;;;;;;0.20;0.20;;;;;;;;;;4985078;28;20130;-86
2024/01/06 12:56:14;;;;;;;0.10;0.10;;;;;;;;;;4936996;29;20051;-85
2024/01/06 12:58:40;;;;;;;0.52;0.52;;;;;;;;;;4936533;29;20086;-85
2024/01/06 13:01:07;;;;;;;0.10;0.10;;;;;;;;;;4936731;29;20395;-84
2024/01/06 13:03:33;;;;;;;0.30;0.30;;;;;;;;;;4984798;28;20043;-86
2024/01/06 13:06:00;;;;;;;0.43;0.43;;;;;;;;;;4984794;28;20050;-85
2024/01/06 13:08:27;;;;;;;0.20;0.20;;;;;;;;;;4936433;29;20315;-85
2024/01/06 13:10:53;;;;;;;0.10;0.10;;;;;;;;;;4936492;29;20102;-85
2024/01/06 13:13:19;;;;;;;0.28;0.28;;;;;;;;;;4984654;28;20039;-85
2024/01/06 13:15:46;;;;;;;0.20;0.20;;;;;;;;;;4936595;29;20044;-85
2024/01/06 13:18:12;;;;;;;0.50;0.50;;;;;;;;;;4984659;28;20121;-85
2024/01/06 13:20:40;;;;;;;0.93;0.93;;;;;;;;;;4936028;29;20055;-86
2024/01/06 13:23:06;;;;;;;1.55;0.35;;;;;;;;;;4984590;28;20043;-87
2024/01/06 13:25:33;;;;;;;0.10;0.10;;;;;;;;;;4984691;28;20040;-86
2024/01/06 13:27:59;;;;;;;0.15;0.15;;;;;;;;;;4936662;29;20075;-88
2024/01/06 13:30:25;;;;;;;0.10;0.10;;;;;;;;;;4984922;28;20542;-88
2024/01/06 13:32:54;;;;;;;0.10;0.10;;;;;;;;;;4984793;28;20040;-87
2024/01/06 13:35:25;;;;;;;0.20;0.20;;;;;;;;;;4936338;29;20063;-87
2024/01/06 13:37:52;;;;;;;0.97;0.77;;;;;;;;;;4984370;28;20043;-88
2024/01/06 13:40:21;;;;;;;0.20;0.20;;;;;;;;;;4937015;29;20760;-88
2024/01/06 13:42:47;;;;;;;0.10;0.10;;;;;;;;;;4988233;28;20129;-88
2024/01/06 13:45:13;;;;;;;0.68;0.68;;;;;;;;;;4987843;28;20043;-86
2024/01/06 13:47:44;;;;;;;0.22;0.22;;;;;;;;;;4939532;29;20044;-87
2024/01/06 13:50:13;;;;;;;0.43;0.43;;;;;;;;;;4988046;28;20406;-86
2024/01/06 13:52:39;;;;;;;0.30;0.30;;;;;;;;;;4939428;29;20047;-87
2024/01/06 13:55:06;;;;;;;0.32;0.32;;;;;;;;;;4987871;28;20053;-85
2024/01/06 13:57:32;;;;;;;0.20;0.20;;;;;;;;;;4939387;29;20047;-86
2024/01/06 13:59:58;;;;;;;0.15;0.15;;;;;;;;;;4987492;28;20122;-86
2024/01/06 14:02:24;;;;;;;0.20;0.20;;;;;;;;;;4987502;28;20482;-85
2024/01/06 14:04:51;;;;;;;0.10;0.10;;;;;;;;;;4988247;28;20046;-84
2024/01/06 14:07:21;;;;;;;0.20;0.20;;;;;;;;;;4988165;28;20046;-90
2024/01/06 14:09:47;;;;;;;0.40;0.40;;;;;;;;;;4939713;29;20075;-90
2024/01/06 14:12:13;;;;;;;3.13;0.40;;;;;;;;;;4939802;29;20074;-90
2024/01/06 14:14:41;;;;;;;0.90;0.57;;;;;;;;;;4939983;29;20054;-89
2024/01/06 14:17:07;;;;;;;0.68;0.68;;;;;;;;;;4988162;28;20110;-89
2024/01/06 14:19:33;;;;;;;0.20;0.20;;;;;;;;;;4939339;29;20036;-89
2024/01/06 14:21:59;;;;;;;0.10;0.10;;;;;;;;;;4939401;29;20090;-90
2024/01/06 14:24:26;;;;;;;0.10;0.10;;;;;;;;;;4940314;29;20039;-89
2024/01/06 14:26:55;;;;;;;1.65;1.55;;;;;;;;;;4939901;29;20054;-90
2024/01/06 14:29:24;;;;;;;1.30;1.20;;;;;;;;;;4988646;28;20058;-89
2024/01/06 14:31:50;;;;;;;0.20;0.20;;;;;;;;;;4986941;28;20045;-87
2024/01/06 14:34:16;;;;;;;0.25;0.25;;;;;;;;;;4938661;29;20122;-85
2024/01/06 14:36:47;;;;;;;3.60;0.28;;;;;;;;;;4938971;29;20098;-91
2024/01/06 14:39:14;;;;;;;0.20;0.20;;;;;;;;;;4955508;29;20126;-91